sensor_id;sensor_type;location;lat;lon;timestamp;temperature;humidity
31695;DHT22;18289;51.330;4.946;2024-03-02T00:01:44;7.00;99.90
31695;DHT22;18289;51.330;4.946;2024-03-02T00:04:10;7.00;99.90
31695;DHT22;18289;51.330;4.946;2024-03-02T00:06:36;7.00;99.90
31695;DHT22;18289;51.330;4.946;2024-03-02T00:09:03;7.00;99.90
31695;DHT22;18289;51.330;4.946;2024-03-02T00:11:28;7.00;99.90
31695;DHT22;18289;51.330;4.946;2024-03-02T00:13:54;6.90;99.90
31695;DHT22;18289;51.330;4.946;2024-03-02T00:16:20;7.00;99.90
31695;DHT22;18289;51.330;4.946;2024-03-02T00:18:46;7.00;99.90
31695;DHT22;18289;51.330;4.946;2024-03-02T00:21:12;7.10;99.90
31695;DHT22;18289;51.330;4.946;2024-03-02T00:23:40;7.00;99.90
31695;DHT22;18289;51.330;4.946;2024-03-02T00:26:06;7.00;99.90
31695;DHT22;18289;51.330;4.946;2024-03-02T00:28:35;7.00;99.90
31695;DHT22;18289;51.330;4.946;2024-03-02T00:31:08;7.00;99.90
31695;DHT22;18289;51.330;4.946;2024-03-02T00:33:52;6.90;99.90
31695;DHT22;18289;51.330;4.946;2024-03-02T00:36:26;6.90;99.90
31695;DHT22;18289;51.330;4.946;2024-03-02T00:38:54;6.90;99.90
31695;DHT22;18289;51.330;4.946;2024-03-02T00:41:32;7.00;99.90
31695;DHT22;18289;51.330;4.946;2024-03-02T00:44:02;7.00;99.90
31695;DHT22;18289;51.330;4.946;2024-03-02T00:46:42;7.00;99.90
31695;DHT22;18289;51.330;4.946;2024-03-02T00:49:21;6.90;99.90
31695;DHT22;18289;51.330;4.946;2024-03-02T00:51:48;6.90;99.90
31695;DHT22;18289;51.330;4.946;2024-03-02T00:54:15;6.90;99.90
31695;DHT22;18289;51.330;4.946;2024-03-02T00:56:44;6.90;99.90
31695;DHT22;18289;51.330;4.946;2024-03-02T00:59:10;6.90;99.90
31695;DHT22;18289;51.330;4.946;2024-03-02T01:01:36;6.90;99.90
31695;DHT22;18289;51.330;4.946;2024-03-02T01:04:02;6.80;99.90
31695;DHT22;18289;51.330;4.946;2024-03-02T01:06:28;6.80;99.90
31695;DHT22;18289;51.330;4.946;2024-03-02T01:08:53;6.80;99.90
31695;DHT22;18289;51.330;4.946;2024-03-02T01:11:19;6.80;99.90
31695;DHT22;18289;51.330;4.946;2024-03-02T01:13:47;6.90;99.90
31695;DHT22;18289;51.330;4.946;2024-03-02T01:16:13;6.80;99.90
31695;DHT22;18289;51.330;4.946;2024-03-02T01:18:41;6.80;99.90
31695;DHT22;18289;51.330;4.946;2024-03-02T01:21:06;6.80;99.90
31695;DHT22;18289;51.330;4.946;2024-03-02T01:23:32;6.80;99.90
31695;DHT22;18289;51.330;4.946;2024-03-02T01:25:58;6.80;99.90
31695;DHT22;18289;51.330;4.946;2024-03-02T01:28:24;6.80;99.90
31695;DHT22;18289;51.330;4.946;2024-03-02T01:30:49;6.80;99.90
31695;DHT22;18289;51.330;4.946;2024-03-02T01:33:18;6.80;99.90
31695;DHT22;18289;51.330;4.946;2024-03-02T01:35:44;6.70;99.90
31695;DHT22;18289;51.330;4.946;2024-03-02T08:05:35;6.50;99.90
31695;DHT22;18289;51.330;4.946;2024-03-02T08:08:00;7.50;99.90
31695;DHT22;18289;51.330;4.946;2024-03-02T08:10:26;7.50;99.90
31695;DHT22;18289;51.330;4.946;2024-03-02T08:12:52;7.60;99.90
31695;DHT22;18289;51.330;4.946;2024-03-02T08:15:17;7.70;99.90
31695;DHT22;18289;51.330;4.946;2024-03-02T08:17:44;7.60;99.90
31695;DHT22;18289;51.330;4.946;2024-03-02T08:20:15;7.60;99.90
31695;DHT22;18289;51.330;4.946;2024-03-02T08:22:40;7.70;99.90
31695;DHT22;18289;51.330;4.946;2024-03-02T08:25:07;7.90;99.90
31695;DHT22;18289;51.330;4.946;2024-03-02T08:27:33;8.00;99.90
31695;DHT22;18289;51.330;4.946;2024-03-02T08:29:59;8.10;99.90
31695;DHT22;18289;51.330;4.946;2024-03-02T08:32:25;8.30;99.90
31695;DHT22;18289;51.330;4.946;2024-03-02T08:34:50;8.40;99.90
31695;DHT22;18289;51.330;4.946;2024-03-02T08:37:16;8.50;99.90
31695;DHT22;18289;51.330;4.946;2024-03-02T08:39:42;8.70;99.90
31695;DHT22;18289;51.330;4.946;2024-03-02T08:42:08;9.00;99.90
31695;DHT22;18289;51.330;4.946;2024-03-02T08:44:33;9.10;99.90
31695;DHT22;18289;51.330;4.946;2024-03-02T08:46:59;9.10;99.90
31695;DHT22;18289;51.330;4.946;2024-03-02T08:49:25;9.20;99.90
31695;DHT22;18289;51.330;4.946;2024-03-02T08:51:51;9.60;99.90
31695;DHT22;18289;51.330;4.946;2024-03-02T08:54:22;9.70;99.90
31695;DHT22;18289;51.330;4.946;2024-03-02T08:56:52;9.80;99.90
31695;DHT22;18289;51.330;4.946;2024-03-02T08:59:17;10.00;99.90
31695;DHT22;18289;51.330;4.946;2024-03-02T09:01:46;10.30;99.90
31695;DHT22;18289;51.330;4.946;2024-03-02T09:04:12;10.30;99.90
31695;DHT22;18289;51.330;4.946;2024-03-02T09:06:38;10.40;99.90
31695;DHT22;18289;51.330;4.946;2024-03-02T09:09:03;10.40;99.90
31695;DHT22;18289;51.330;4.946;2024-03-02T09:11:30;10.70;99.90
31695;DHT22;18289;51.330;4.946;2024-03-02T09:13:56;11.00;99.90
31695;DHT22;18289;51.330;4.946;2024-03-02T09:16:23;11.40;99.90
31695;DHT22;18289;51.330;4.946;2024-03-02T09:18:49;11.60;99.90
31695;DHT22;18289;51.330;4.946;2024-03-02T09:21:15;11.60;99.90
31695;DHT22;18289;51.330;4.946;2024-03-02T09:23:41;11.80;99.90
31695;DHT22;18289;51.330;4.946;2024-03-02T09:26:07;12.20;99.90
31695;DHT22;18289;51.330;4.946;2024-03-02T09:28:32;12.40;99.90
31695;DHT22;18289;51.330;4.946;2024-03-02T09:30:58;12.50;99.90
31695;DHT22;18289;51.330;4.946;2024-03-02T09:33:26;12.80;99.90
31695;DHT22;18289;51.330;4.946;2024-03-02T09:35:52;12.80;99.90
31695;DHT22;18289;51.330;4.946;2024-03-02T09:38:17;12.70;99.90
31695;DHT22;18289;51.330;4.946;2024-03-02T09:40:43;13.00;99.90
31695;DHT22;18289;51.330;4.946;2024-03-02T09:43:09;13.10;99.90
31695;DHT22;18289;51.330;4.946;2024-03-02T09:45:36;13.10;99.90
31695;DHT22;18289;51.330;4.946;2024-03-02T09:48:02;13.30;99.90
31695;DHT22;18289;51.330;4.946;2024-03-02T09:50:27;13.20;99.90
31695;DHT22;18289;51.330;4.946;2024-03-02T09:52:53;13.00;99.90
31695;DHT22;18289;51.330;4.946;2024-03-02T09:55:20;12.60;99.90
31695;DHT22;18289;51.330;4.946;2024-03-02T09:57:46;13.00;99.90
31695;DHT22;18289;51.330;4.946;2024-03-02T10:00:14;13.10;99.90
31695;DHT22;18289;51.330;4.946;2024-03-02T10:02:43;13.30;99.90
31695;DHT22;18289;51.330;4.946;2024-03-02T10:05:10;13.20;99.90
31695;DHT22;18289;51.330;4.946;2024-03-02T10:07:35;13.30;99.90
31695;DHT22;18289;51.330;4.946;2024-03-02T10:10:15;13.20;99.90
31695;DHT22;18289;51.330;4.946;2024-03-02T10:12:41;13.10;99.90
31695;DHT22;18289;51.330;4.946;2024-03-02T10:15:07;13.20;99.90
31695;DHT22;18289;51.330;4.946;2024-03-02T10:17:33;13.70;99.90
31695;DHT22;18289;51.330;4.946;2024-03-02T10:19:58;13.60;99.90
31695;DHT22;18289;51.330;4.946;2024-03-02T10:22:24;13.20;99.90
31695;DHT22;18289;51.330;4.946;2024-03-02T10:24:52;13.00;99.90
31695;DHT22;18289;51.330;4.946;2024-03-02T10:27:23;12.90;99.90
31695;DHT22;18289;51.330;4.946;2024-03-02T10:29:50;13.20;99.90
31695;DHT22;18289;51.330;4.946;2024-03-02T10:32:16;13.50;99.90
31695;DHT22;18289;51.330;4.946;2024-03-02T10:34:44;13.90;99.90
31695;DHT22;18289;51.330;4.946;2024-03-02T10:37:11;13.80;99.90
31695;DHT22;18289;51.330;4.946;2024-03-02T10:39:37;14.20;99.90
31695;DHT22;18289;51.330;4.946;2024-03-02T10:42:07;14.50;99.90
31695;DHT22;18289;51.330;4.946;2024-03-02T10:44:33;14.80;99.90
31695;DHT22;18289;51.330;4.946;2024-03-02T10:47:03;15.10;99.90
31695;DHT22;18289;51.330;4.946;2024-03-02T10:49:31;14.90;99.90
31695;DHT22;18289;51.330;4.946;2024-03-02T10:52:01;15.20;99.90
31695;DHT22;18289;51.330;4.946;2024-03-02T10:54:27;15.70;99.90
31695;DHT22;18289;51.330;4.946;2024-03-02T10:56:58;16.00;99.90
31695;DHT22;18289;51.330;4.946;2024-03-02T10:59:34;15.70;99.90
31695;DHT22;18289;51.330;4.946;2024-03-02T11:02:03;15.60;99.90
31695;DHT22;18289;51.330;4.946;2024-03-02T11:04:30;15.50;99.90
31695;DHT22;18289;51.330;4.946;2024-03-02T11:07:07;16.00;99.90
31695;DHT22;18289;51.330;4.946;2024-03-02T11:09:35;16.50;99.90
31695;DHT22;18289;51.330;4.946;2024-03-02T11:14:54;17.70;99.90
31695;DHT22;18289;51.330;4.946;2024-03-02T11:17:21;18.50;99.90
31695;DHT22;18289;51.330;4.946;2024-03-02T11:19:49;18.90;99.90
31695;DHT22;18289;51.330;4.946;2024-03-02T11:22:16;19.40;99.90
31695;DHT22;18289;51.330;4.946;2024-03-02T11:24:52;19.10;99.90
31695;DHT22;18289;51.330;4.946;2024-03-02T11:35:38;17.90;99.90
31695;DHT22;18289;51.330;4.946;2024-03-02T11:38:08;18.00;99.90
31695;DHT22;18289;51.330;4.946;2024-03-02T11:40:34;17.90;99.90
31695;DHT22;18289;51.330;4.946;2024-03-02T11:43:00;18.00;99.90
31695;DHT22;18289;51.330;4.946;2024-03-02T11:45:27;18.10;99.90
31695;DHT22;18289;51.330;4.946;2024-03-02T11:47:58;18.20;99.90
31695;DHT22;18289;51.330;4.946;2024-03-02T11:50:34;18.90;99.90
31695;DHT22;18289;51.330;4.946;2024-03-02T11:53:00;19.70;99.90
31695;DHT22;18289;51.330;4.946;2024-03-02T11:55:26;18.80;99.90
31695;DHT22;18289;51.330;4.946;2024-03-02T11:57:55;17.90;99.90
31695;DHT22;18289;51.330;4.946;2024-03-02T12:00:20;17.70;99.90
31695;DHT22;18289;51.330;4.946;2024-03-02T12:02:48;17.60;99.90
31695;DHT22;18289;51.330;4.946;2024-03-02T12:05:25;17.70;99.90
31695;DHT22;18289;51.330;4.946;2024-03-02T12:07:59;17.40;99.90
31695;DHT22;18289;51.330;4.946;2024-03-02T12:10:25;16.80;99.90
31695;DHT22;18289;51.330;4.946;2024-03-02T12:13:05;17.10;99.90
31695;DHT22;18289;51.330;4.946;2024-03-02T12:15:35;17.60;99.90
31695;DHT22;18289;51.330;4.946;2024-03-02T12:20:33;18.10;99.90
31695;DHT22;18289;51.330;4.946;2024-03-02T12:23:00;18.30;99.90
31695;DHT22;18289;51.330;4.946;2024-03-02T12:25:26;18.70;99.90
31695;DHT22;18289;51.330;4.946;2024-03-02T12:27:57;18.80;99.90
31695;DHT22;18289;51.330;4.946;2024-03-02T12:30:24;19.20;99.90
31695;DHT22;18289;51.330;4.946;2024-03-02T12:32:50;18.50;99.90
31695;DHT22;18289;51.330;4.946;2024-03-02T12:35:15;17.90;99.90
31695;DHT22;18289;51.330;4.946;2024-03-02T12:37:46;17.90;99.90
31695;DHT22;18289;51.330;4.946;2024-03-02T12:40:13;18.10;99.90
31695;DHT22;18289;51.330;4.946;2024-03-02T12:42:41;18.60;99.90
31695;DHT22;18289;51.330;4.946;2024-03-02T12:45:09;18.60;99.90
31695;DHT22;18289;51.330;4.946;2024-03-02T12:47:36;18.70;99.90
31695;DHT22;18289;51.330;4.946;2024-03-02T12:50:05;19.20;99.90
31695;DHT22;18289;51.330;4.946;2024-03-02T12:52:31;19.00;99.90
31695;DHT22;18289;51.330;4.946;2024-03-02T12:55:01;19.00;99.90
31695;DHT22;18289;51.330;4.946;2024-03-02T12:57:29;19.00;99.90
31695;DHT22;18289;51.330;4.946;2024-03-02T13:02:27;18.70;99.90
31695;DHT22;18289;51.330;4.946;2024-03-02T13:04:54;18.70;99.90
31695;DHT22;18289;51.330;4.946;2024-03-02T13:07:20;18.70;99.90
31695;DHT22;18289;51.330;4.946;2024-03-02T13:09:49;18.60;99.90
31695;DHT22;18289;51.330;4.946;2024-03-02T13:12:16;19.00;99.90
31695;DHT22;18289;51.330;4.946;2024-03-02T13:14:42;18.80;99.90
31695;DHT22;18289;51.330;4.946;2024-03-02T13:17:09;18.50;99.90
31695;DHT22;18289;51.330;4.946;2024-03-02T13:19:35;18.60;99.90
31695;DHT22;18289;51.330;4.946;2024-03-02T13:22:00;17.90;99.90
31695;DHT22;18289;51.330;4.946;2024-03-02T13:24:30;17.00;99.90
31695;DHT22;18289;51.330;4.946;2024-03-02T13:26:56;16.30;99.90
31695;DHT22;18289;51.330;4.946;2024-03-02T13:29:23;15.80;99.90
31695;DHT22;18289;51.330;4.946;2024-03-02T13:31:50;15.50;99.90
31695;DHT22;18289;51.330;4.946;2024-03-02T13:34:16;15.50;99.90
31695;DHT22;18289;51.330;4.946;2024-03-02T13:36:42;15.40;99.90
31695;DHT22;18289;51.330;4.946;2024-03-02T13:39:07;15.10;99.90
31695;DHT22;18289;51.330;4.946;2024-03-02T13:41:36;15.40;99.90
31695;DHT22;18289;51.330;4.946;2024-03-02T13:44:02;16.70;99.90
31695;DHT22;18289;51.330;4.946;2024-03-02T13:46:28;18.50;99.90
31695;DHT22;18289;51.330;4.946;2024-03-02T13:48:54;19.30;99.90
31695;DHT22;18289;51.330;4.946;2024-03-02T13:51:21;19.10;99.90
31695;DHT22;18289;51.330;4.946;2024-03-02T13:53:46;19.00;99.90
31695;DHT22;18289;51.330;4.946;2024-03-02T13:56:12;19.40;99.90
31695;DHT22;18289;51.330;4.946;2024-03-02T13:58:38;19.70;99.90
31695;DHT22;18289;51.330;4.946;2024-03-02T14:01:05;18.50;99.90
31695;DHT22;18289;51.330;4.946;2024-03-02T14:03:30;18.80;99.90
31695;DHT22;18289;51.330;4.946;2024-03-02T14:05:56;18.80;99.90
31695;DHT22;18289;51.330;4.946;2024-03-02T14:08:22;18.30;99.90
31695;DHT22;18289;51.330;4.946;2024-03-02T14:10:48;19.20;99.90
31695;DHT22;18289;51.330;4.946;2024-03-02T14:13:14;19.70;99.90
31695;DHT22;18289;51.330;4.946;2024-03-02T14:15:41;20.20;99.90
31695;DHT22;18289;51.330;4.946;2024-03-02T14:18:07;19.90;99.90
31695;DHT22;18289;51.330;4.946;2024-03-02T14:20:35;18.90;99.90
31695;DHT22;18289;51.330;4.946;2024-03-02T14:23:01;17.70;99.90
31695;DHT22;18289;51.330;4.946;2024-03-02T14:25:28;16.70;99.90
31695;DHT22;18289;51.330;4.946;2024-03-02T14:27:58;16.60;99.90
31695;DHT22;18289;51.330;4.946;2024-03-02T14:30:24;17.10;99.90
31695;DHT22;18289;51.330;4.946;2024-03-02T14:32:50;17.80;99.90
31695;DHT22;18289;51.330;4.946;2024-03-02T14:35:16;17.90;99.90
31695;DHT22;18289;51.330;4.946;2024-03-02T14:37:42;17.50;99.90
31695;DHT22;18289;51.330;4.946;2024-03-02T14:40:08;17.10;99.90
31695;DHT22;18289;51.330;4.946;2024-03-02T14:42:35;16.50;99.90
31695;DHT22;18289;51.330;4.946;2024-03-02T14:45:02;16.10;99.90
31695;DHT22;18289;51.330;4.946;2024-03-02T14:47:33;15.60;99.90
31695;DHT22;18289;51.330;4.946;2024-03-02T14:50:01;15.40;99.90
31695;DHT22;18289;51.330;4.946;2024-03-02T14:52:32;15.20;99.90
31695;DHT22;18289;51.330;4.946;2024-03-02T14:54:58;15.00;99.90
31695;DHT22;18289;51.330;4.946;2024-03-02T14:57:23;14.90;99.90
31695;DHT22;18289;51.330;4.946;2024-03-02T14:59:49;14.80;99.90
31695;DHT22;18289;51.330;4.946;2024-03-02T15:02:15;14.90;99.90
31695;DHT22;18289;51.330;4.946;2024-03-02T15:04:40;14.80;99.90
31695;DHT22;18289;51.330;4.946;2024-03-02T15:09:34;14.50;99.90
31695;DHT22;18289;51.330;4.946;2024-03-02T15:12:01;14.30;99.90
31695;DHT22;18289;51.330;4.946;2024-03-02T15:14:27;14.20;99.90
31695;DHT22;18289;51.330;4.946;2024-03-02T15:16:53;14.20;99.90
31695;DHT22;18289;51.330;4.946;2024-03-02T15:19:18;14.20;99.90
31695;DHT22;18289;51.330;4.946;2024-03-02T15:21:44;14.20;99.90
31695;DHT22;18289;51.330;4.946;2024-03-02T15:24:10;14.20;99.90
31695;DHT22;18289;51.330;4.946;2024-03-02T15:26:38;14.10;99.90
31695;DHT22;18289;51.330;4.946;2024-03-02T15:29:03;14.00;99.90
31695;DHT22;18289;51.330;4.946;2024-03-02T15:31:29;13.90;99.90
31695;DHT22;18289;51.330;4.946;2024-03-02T15:33:55;13.90;99.90
31695;DHT22;18289;51.330;4.946;2024-03-02T15:36:22;13.90;99.90
31695;DHT22;18289;51.330;4.946;2024-03-02T15:38:48;14.00;99.90
31695;DHT22;18289;51.330;4.946;2024-03-02T15:41:14;14.20;99.90
31695;DHT22;18289;51.330;4.946;2024-03-02T15:43:40;14.40;99.90
31695;DHT22;18289;51.330;4.946;2024-03-02T15:46:10;14.60;99.90
31695;DHT22;18289;51.330;4.946;2024-03-02T15:48:36;14.60;99.90
31695;DHT22;18289;51.330;4.946;2024-03-02T15:51:02;14.30;99.90
31695;DHT22;18289;51.330;4.946;2024-03-02T15:53:29;14.20;99.90
31695;DHT22;18289;51.330;4.946;2024-03-02T15:55:55;14.10;99.90
31695;DHT22;18289;51.330;4.946;2024-03-02T15:58:21;13.90;99.90
31695;DHT22;18289;51.330;4.946;2024-03-02T16:00:47;13.90;99.90
31695;DHT22;18289;51.330;4.946;2024-03-02T16:03:14;13.90;99.90
31695;DHT22;18289;51.330;4.946;2024-03-02T16:05:39;13.80;99.90
31695;DHT22;18289;51.330;4.946;2024-03-02T16:08:05;13.70;99.90
31695;DHT22;18289;51.330;4.946;2024-03-02T16:10:31;13.60;99.90
31695;DHT22;18289;51.330;4.946;2024-03-02T16:12:57;13.60;99.90
31695;DHT22;18289;51.330;4.946;2024-03-02T16:15:26;13.50;99.90
31695;DHT22;18289;51.330;4.946;2024-03-02T16:17:53;13.50;99.90
31695;DHT22;18289;51.330;4.946;2024-03-02T16:20:19;13.40;99.90
31695;DHT22;18289;51.330;4.946;2024-03-02T16:22:44;13.40;99.90
31695;DHT22;18289;51.330;4.946;2024-03-02T16:25:10;13.30;99.90
31695;DHT22;18289;51.330;4.946;2024-03-02T16:27:36;13.20;99.90
31695;DHT22;18289;51.330;4.946;2024-03-02T16:30:01;13.20;99.90
31695;DHT22;18289;51.330;4.946;2024-03-02T16:32:28;13.10;99.90
31695;DHT22;18289;51.330;4.946;2024-03-02T16:34:54;13.10;99.90
31695;DHT22;18289;51.330;4.946;2024-03-02T16:37:19;13.10;99.90
31695;DHT22;18289;51.330;4.946;2024-03-02T16:39:45;13.10;99.90
31695;DHT22;18289;51.330;4.946;2024-03-02T16:42:11;13.00;99.90
31695;DHT22;18289;51.330;4.946;2024-03-02T16:44:36;13.10;99.90
31695;DHT22;18289;51.330;4.946;2024-03-02T16:49:33;13.10;99.90
31695;DHT22;18289;51.330;4.946;2024-03-02T16:51:59;13.00;99.90
31695;DHT22;18289;51.330;4.946;2024-03-02T16:54:24;13.00;99.90
31695;DHT22;18289;51.330;4.946;2024-03-02T16:56:50;13.00;99.90
31695;DHT22;18289;51.330;4.946;2024-03-02T16:59:16;13.00;99.90
31695;DHT22;18289;51.330;4.946;2024-03-02T17:01:43;13.00;99.90
31695;DHT22;18289;51.330;4.946;2024-03-02T17:04:08;12.90;99.90
31695;DHT22;18289;51.330;4.946;2024-03-02T17:06:35;12.90;99.90
31695;DHT22;18289;51.330;4.946;2024-03-02T17:09:01;12.90;99.90
31695;DHT22;18289;51.330;4.946;2024-03-02T17:11:27;12.90;99.90
31695;DHT22;18289;51.330;4.946;2024-03-02T17:13:52;12.90;99.90
31695;DHT22;18289;51.330;4.946;2024-03-02T17:16:26;12.80;99.90
31695;DHT22;18289;51.330;4.946;2024-03-02T17:18:52;12.80;99.90
31695;DHT22;18289;51.330;4.946;2024-03-02T17:21:18;12.80;99.90
31695;DHT22;18289;51.330;4.946;2024-03-02T17:23:43;12.70;99.90
31695;DHT22;18289;51.330;4.946;2024-03-02T17:26:09;12.70;99.90
31695;DHT22;18289;51.330;4.946;2024-03-02T17:28:35;12.70;99.90
31695;DHT22;18289;51.330;4.946;2024-03-02T17:31:00;12.70;99.90
31695;DHT22;18289;51.330;4.946;2024-03-02T17:33:28;12.60;99.90
31695;DHT22;18289;51.330;4.946;2024-03-02T17:35:54;12.60;99.90
31695;DHT22;18289;51.330;4.946;2024-03-02T17:38:20;12.60;99.90
31695;DHT22;18289;51.330;4.946;2024-03-02T17:40:45;12.60;99.90
31695;DHT22;18289;51.330;4.946;2024-03-02T17:43:12;12.70;99.90
31695;DHT22;18289;51.330;4.946;2024-03-02T17:45:40;12.50;99.90
31695;DHT22;18289;51.330;4.946;2024-03-02T17:48:09;12.50;99.90
31695;DHT22;18289;51.330;4.946;2024-03-02T17:50:37;12.50;99.90
31695;DHT22;18289;51.330;4.946;2024-03-02T17:53:03;12.40;99.90
31695;DHT22;18289;51.330;4.946;2024-03-02T17:55:29;12.30;99.90
31695;DHT22;18289;51.330;4.946;2024-03-02T17:57:54;12.20;99.90
31695;DHT22;18289;51.330;4.946;2024-03-02T18:00:20;12.20;99.90
31695;DHT22;18289;51.330;4.946;2024-03-02T18:02:48;12.10;99.90
31695;DHT22;18289;51.330;4.946;2024-03-02T18:05:14;12.10;99.90
31695;DHT22;18289;51.330;4.946;2024-03-02T18:07:40;12.10;99.90
31695;DHT22;18289;51.330;4.946;2024-03-02T18:10:06;12.10;99.90
31695;DHT22;18289;51.330;4.946;2024-03-02T18:12:32;12.00;99.90
31695;DHT22;18289;51.330;4.946;2024-03-02T18:14:58;12.10;99.90
31695;DHT22;18289;51.330;4.946;2024-03-02T18:17:23;12.10;99.90
31695;DHT22;18289;51.330;4.946;2024-03-02T18:22:17;12.10;99.90
31695;DHT22;18289;51.330;4.946;2024-03-02T18:24:43;12.20;99.90
31695;DHT22;18289;51.330;4.946;2024-03-02T18:27:11;12.10;99.90
31695;DHT22;18289;51.330;4.946;2024-03-02T18:29:37;11.90;99.90
31695;DHT22;18289;51.330;4.946;2024-03-02T18:32:03;11.80;99.90
31695;DHT22;18289;51.330;4.946;2024-03-02T18:34:29;11.80;99.90
31695;DHT22;18289;51.330;4.946;2024-03-02T18:36:55;11.70;99.90
31695;DHT22;18289;51.330;4.946;2024-03-02T18:39:21;11.60;99.90
31695;DHT22;18289;51.330;4.946;2024-03-02T18:41:47;11.70;99.90
31695;DHT22;18289;51.330;4.946;2024-03-02T18:44:13;11.70;99.90
31695;DHT22;18289;51.330;4.946;2024-03-02T18:46:39;11.70;99.90
31695;DHT22;18289;51.330;4.946;2024-03-02T18:49:04;11.70;99.90
31695;DHT22;18289;51.330;4.946;2024-03-02T18:51:30;11.70;99.90
31695;DHT22;18289;51.330;4.946;2024-03-02T18:53:56;11.70;99.90
31695;DHT22;18289;51.330;4.946;2024-03-02T18:56:21;11.70;99.90
31695;DHT22;18289;51.330;4.946;2024-03-02T18:58:47;11.70;99.90
31695;DHT22;18289;51.330;4.946;2024-03-02T19:01:14;11.70;99.90
31695;DHT22;18289;51.330;4.946;2024-03-02T19:03:40;11.80;99.90
31695;DHT22;18289;51.330;4.946;2024-03-02T19:06:06;11.70;99.90
31695;DHT22;18289;51.330;4.946;2024-03-02T19:08:33;11.80;99.90
31695;DHT22;18289;51.330;4.946;2024-03-02T19:10:59;11.80;99.90
31695;DHT22;18289;51.330;4.946;2024-03-02T19:13:25;11.80;99.90
31695;DHT22;18289;51.330;4.946;2024-03-02T19:15:51;11.80;99.90
31695;DHT22;18289;51.330;4.946;2024-03-02T19:18:17;11.70;99.90
31695;DHT22;18289;51.330;4.946;2024-03-02T19:20:42;11.80;99.90
31695;DHT22;18289;51.330;4.946;2024-03-02T19:23:08;11.70;99.90
31695;DHT22;18289;51.330;4.946;2024-03-02T19:25:34;11.80;99.90
31695;DHT22;18289;51.330;4.946;2024-03-02T19:28:00;11.80;99.90
31695;DHT22;18289;51.330;4.946;2024-03-02T19:30:25;11.80;99.90
31695;DHT22;18289;51.330;4.946;2024-03-02T19:32:51;11.80;99.90
31695;DHT22;18289;51.330;4.946;2024-03-02T19:35:17;11.80;99.90
31695;DHT22;18289;51.330;4.946;2024-03-02T19:37:43;11.70;99.90
31695;DHT22;18289;51.330;4.946;2024-03-02T19:40:09;11.70;99.90
31695;DHT22;18289;51.330;4.946;2024-03-02T19:42:37;11.60;99.90
31695;DHT22;18289;51.330;4.946;2024-03-02T19:45:03;11.70;99.90
31695;DHT22;18289;51.330;4.946;2024-03-02T19:47:34;11.60;99.90
31695;DHT22;18289;51.330;4.946;2024-03-02T19:50:01;11.50;99.90
31695;DHT22;18289;51.330;4.946;2024-03-02T19:52:29;11.50;99.90
31695;DHT22;18289;51.330;4.946;2024-03-02T19:54:55;11.40;99.90
31695;DHT22;18289;51.330;4.946;2024-03-02T19:57:21;11.30;99.90
31695;DHT22;18289;51.330;4.946;2024-03-02T20:02:22;11.30;99.90
31695;DHT22;18289;51.330;4.946;2024-03-02T20:07:23;11.20;99.90
31695;DHT22;18289;51.330;4.946;2024-03-02T20:09:56;11.20;99.90
31695;DHT22;18289;51.330;4.946;2024-03-02T20:12:21;11.10;99.90
31695;DHT22;18289;51.330;4.946;2024-03-02T20:14:47;11.10;99.90
31695;DHT22;18289;51.330;4.946;2024-03-02T20:17:15;11.10;99.90
31695;DHT22;18289;51.330;4.946;2024-03-02T20:19:41;11.10;99.90
31695;DHT22;18289;51.330;4.946;2024-03-02T20:22:07;11.10;99.90
31695;DHT22;18289;51.330;4.946;2024-03-02T20:24:33;11.00;99.90
31695;DHT22;18289;51.330;4.946;2024-03-02T20:29:26;11.00;99.90
31695;DHT22;18289;51.330;4.946;2024-03-02T20:31:52;11.10;99.90
31695;DHT22;18289;51.330;4.946;2024-03-02T20:34:18;11.00;99.90
31695;DHT22;18289;51.330;4.946;2024-03-02T20:36:44;11.00;99.90
31695;DHT22;18289;51.330;4.946;2024-03-02T20:39:10;10.90;99.90
31695;DHT22;18289;51.330;4.946;2024-03-02T20:41:36;10.90;99.90
31695;DHT22;18289;51.330;4.946;2024-03-02T20:44:02;10.90;99.90
31695;DHT22;18289;51.330;4.946;2024-03-02T20:46:29;10.90;99.90
31695;DHT22;18289;51.330;4.946;2024-03-02T20:48:55;10.90;99.90
31695;DHT22;18289;51.330;4.946;2024-03-02T20:51:22;10.90;99.90
31695;DHT22;18289;51.330;4.946;2024-03-02T20:53:57;10.80;99.90
31695;DHT22;18289;51.330;4.946;2024-03-02T20:56:23;10.80;99.90
31695;DHT22;18289;51.330;4.946;2024-03-02T20:58:49;10.70;99.90
31695;DHT22;18289;51.330;4.946;2024-03-02T21:01:15;10.80;99.90
31695;DHT22;18289;51.330;4.946;2024-03-02T21:03:42;10.80;99.90
31695;DHT22;18289;51.330;4.946;2024-03-02T21:06:08;10.70;99.90
31695;DHT22;18289;51.330;4.946;2024-03-02T21:08:34;10.70;99.90
31695;DHT22;18289;51.330;4.946;2024-03-02T21:11:00;10.70;99.90
31695;DHT22;18289;51.330;4.946;2024-03-02T21:13:27;10.70;99.90
31695;DHT22;18289;51.330;4.946;2024-03-02T21:15:54;10.60;99.90
31695;DHT22;18289;51.330;4.946;2024-03-02T21:18:19;10.60;99.90
31695;DHT22;18289;51.330;4.946;2024-03-02T21:20:45;10.50;99.90
31695;DHT22;18289;51.330;4.946;2024-03-02T21:23:11;10.50;99.90
31695;DHT22;18289;51.330;4.946;2024-03-02T21:25:43;10.50;99.90
31695;DHT22;18289;51.330;4.946;2024-03-02T21:28:09;10.40;99.90
31695;DHT22;18289;51.330;4.946;2024-03-02T21:30:35;10.50;99.90
31695;DHT22;18289;51.330;4.946;2024-03-02T21:33:02;10.50;99.90
31695;DHT22;18289;51.330;4.946;2024-03-02T21:35:32;10.50;99.90
31695;DHT22;18289;51.330;4.946;2024-03-02T21:37:59;10.70;99.90
31695;DHT22;18289;51.330;4.946;2024-03-02T21:40:24;10.70;99.90
31695;DHT22;18289;51.330;4.946;2024-03-02T21:42:50;10.80;99.90
31695;DHT22;18289;51.330;4.946;2024-03-02T21:45:19;10.80;99.90
31695;DHT22;18289;51.330;4.946;2024-03-02T21:47:45;10.90;99.90
31695;DHT22;18289;51.330;4.946;2024-03-02T21:50:11;10.90;99.90
31695;DHT22;18289;51.330;4.946;2024-03-02T21:52:37;10.90;99.90
31695;DHT22;18289;51.330;4.946;2024-03-02T21:55:03;11.00;99.90
31695;DHT22;18289;51.330;4.946;2024-03-02T21:57:29;11.00;99.90
31695;DHT22;18289;51.330;4.946;2024-03-02T21:59:54;11.00;99.90
31695;DHT22;18289;51.330;4.946;2024-03-02T22:02:20;11.10;99.90
31695;DHT22;18289;51.330;4.946;2024-03-02T22:04:46;11.10;99.90
31695;DHT22;18289;51.330;4.946;2024-03-02T22:07:12;11.10;99.90
31695;DHT22;18289;51.330;4.946;2024-03-02T22:09:37;11.20;99.90
31695;DHT22;18289;51.330;4.946;2024-03-02T22:12:03;11.20;99.90
31695;DHT22;18289;51.330;4.946;2024-03-02T22:14:29;11.20;99.90
31695;DHT22;18289;51.330;4.946;2024-03-02T22:16:55;11.20;99.90
31695;DHT22;18289;51.330;4.946;2024-03-02T22:19:20;11.20;99.90
31695;DHT22;18289;51.330;4.946;2024-03-02T22:21:46;11.30;99.90
31695;DHT22;18289;51.330;4.946;2024-03-02T22:24:12;11.30;99.90
31695;DHT22;18289;51.330;4.946;2024-03-02T22:26:39;11.40;99.90
31695;DHT22;18289;51.330;4.946;2024-03-02T22:29:04;11.40;99.90